Time;durP1;ratioP1;P1;durP2;ratioP2;P2;SDS_P1;SDS_P2;PMS_P1;PMS_P2;Temp;Humidity;BMP_temperature;BMP_pressure;BME280_temperature;BME280_humidity;BME280_pressure;Samples;Min_cycle;Max_cycle;Signal;HPM_P1;HPM_P2
2021/07/17 00:01:20;;;;;;;;;;;;;;;21.44;91.37;98884.73;4190396;83;20144;-83
2021/07/17 00:07:23;;;;;;;;;;;;;;;21.33;91.63;98895.45;4187510;83;20181;-83
2021/07/17 00:13:24;;;;;;;;;;;;;;;21.14;92.55;98909.02;4189796;83;20198;-86
2021/07/17 00:19:25;;;;;;;;;;;;;;;21.12;92.60;98910.70;4181061;83;20133;-83
2021/07/17 00:25:26;;;;;;;;;;;;;;;21.15;92.18;98906.41;4187437;83;20137;-84
2021/07/17 00:31:27;;;;;;;;;;;;;;;20.96;92.73;98896.91;4240427;81;20169;-84
2021/07/17 00:37:28;;;;;;;;;;;;;;;20.86;92.47;98882.08;4288516;81;20170;-83
2021/07/17 00:43:50;;;;;;;;;;;;;;;20.84;92.62;98887.92;4297251;82;20235;-83
2021/07/17 00:49:52;;;;;;;;;;;;;;;20.58;93.25;98874.63;4297918;82;20436;-83
2021/07/17 00:55:55;;;;;;;;;;;;;;;20.54;93.46;98854.50;4276275;82;20609;-84
2021/07/17 01:01:58;;;;;;;;;;;;;;;20.55;93.42;98878.30;4278077;82;20358;-84
2021/07/17 01:08:04;;;;;;;;;;;;;;;20.49;94.58;98860.61;4260282;82;20168;-84
2021/07/17 01:14:05;;;;;;;;;;;;;;;20.62;94.17;98874.52;4289496;82;20201;-83
2021/07/17 01:20:11;;;;;;;;;;;;;;;20.55;93.85;98880.31;4290831;82;20181;-82
2021/07/17 01:26:15;;;;;;;;;;;;;;;20.53;93.92;98905.76;4302030;81;20314;-84
2021/07/17 01:32:23;;;;;;;;;;;;;;;20.39;93.49;98912.38;4263266;82;20129;-83
2021/07/17 01:38:24;;;;;;;;;;;;;;;20.32;94.10;98918.92;4249043;82;20164;-84
2021/07/17 01:44:25;;;;;;;;;;;;;;;20.27;93.77;98921.45;4258962;82;20141;-84
2021/07/17 01:50:31;;;;;;;;;;;;;;;20.27;94.52;98915.28;4253527;80;20152;-84
2021/07/17 01:56:32;;;;;;;;;;;;;;;20.14;94.32;98916.64;4256491;82;20452;-84
2021/07/17 02:02:33;;;;;;;;;;;;;;;20.17;95.66;98909.44;4246743;82;20141;-84
2021/07/17 02:08:35;;;;;;;;;;;;;;;20.37;95.58;98910.64;4261260;80;20120;-84
2021/07/17 02:14:43;;;;;;;;;;;;;;;20.29;94.28;98900.95;4261227;82;20173;-84
2021/07/17 02:20:43;;;;;;;;;;;;;;;20.09;94.84;98906.66;4260118;82;20168;-84
2021/07/17 02:26:46;;;;;;;;;;;;;;;19.97;95.38;98907.38;4254780;82;20901;-84
2021/07/17 02:32:48;;;;;;;;;;;;;;;19.99;94.51;98909.12;4250533;82;20127;-84
2021/07/17 02:38:51;;;;;;;;;;;;;;;19.71;94.86;98906.52;4241880;82;20140;-84
2021/07/17 02:44:55;;;;;;;;;;;;;;;19.74;95.53;98910.41;4250704;81;20137;-84
2021/07/17 02:51:09;;;;;;;;;;;;;;;19.70;94.96;98902.17;4259775;81;20161;-84
2021/07/17 02:57:10;;;;;;;;;;;;;;;19.72;95.49;98909.46;4288231;80;20128;-84
2021/07/17 03:03:11;;;;;;;;;;;;;;;19.76;95.20;98904.58;4294132;81;20128;-84
2021/07/17 03:09:15;;;;;;;;;;;;;;;19.66;94.85;98907.65;4287019;80;20104;-85
2021/07/17 03:15:16;;;;;;;;;;;;;;;19.56;95.82;98913.66;4092957;82;52967;-84
2021/07/17 03:21:17;;;;;;;;;;;;;;;19.76;96.45;98898.27;4129833;85;20151;-84
2021/07/17 03:27:19;;;;;;;;;;;;;;;19.94;96.41;98887.42;4118343;84;20511;-84
2021/07/17 03:33:26;;;;;;;;;;;;;;;20.01;96.17;98899.11;4118409;85;20199;-84
2021/07/17 03:39:27;;;;;;;;;;;;;;;20.05;95.96;98905.97;4120661;85;20160;-84
2021/07/17 03:45:30;;;;;;;;;;;;;;;19.99;95.91;98904.95;4123275;83;23517;-84
2021/07/17 03:51:31;;;;;;;;;;;;;;;19.96;96.17;98901.67;4121131;85;20173;-84
2021/07/17 03:57:32;;;;;;;;;;;;;;;20.00;96.23;98916.22;4112050;86;20159;-86
2021/07/17 04:03:33;;;;;;;;;;;;;;;20.12;96.53;98912.73;4120321;85;20133;-85
2021/07/17 04:09:35;;;;;;;;;;;;;;;20.23;96.12;98913.23;4115118;84;20613;-84
2021/07/17 04:15:36;;;;;;;;;;;;;;;20.26;96.00;98918.51;4124067;85;20149;-85
2021/07/17 04:21:38;;;;;;;;;;;;;;;20.28;96.29;98913.30;4124895;85;20111;-84
2021/07/17 04:27:39;;;;;;;;;;;;;;;20.37;96.44;98916.98;4146826;86;20460;-85
2021/07/17 04:33:40;;;;;;;;;;;;;;;20.54;96.47;98924.63;4112343;85;20150;-85
2021/07/17 04:39:43;;;;;;;;;;;;;;;20.55;96.04;98922.03;4127190;85;20544;-85
2021/07/17 04:45:44;;;;;;;;;;;;;;;20.58;96.34;98914.19;4107803;85;20133;-85
2021/07/17 04:51:45;;;;;;;;;;;;;;;20.48;96.20;98916.06;4103007;85;20136;-86
2021/07/17 04:59:05;;;;;;;;;;;;;;;20.65;96.30;98907.00;4126259;84;38963;-85
2021/07/17 16:14:01;;;;;;;16.15;9.40;;;;;;;27.24;70.63;98647.89;4530395;77;22687;-80
2021/07/17 16:20:05;;;;;;;11.78;9.58;;;;;;;27.15;70.74;98650.88;4411859;79;20956;-81
2021/07/17 16:26:06;;;;;;;11.70;9.33;;;;;;;27.07;71.34;98655.38;4399994;79;21145;-81
2021/07/17 16:32:08;;;;;;;11.78;9.70;;;;;;;26.98;71.33;98660.37;4389034;79;21082;-81
2021/07/17 16:38:09;;;;;;;10.93;9.40;;;;;;;26.90;71.70;98647.39;4409061;79;21046;-81
2021/07/17 16:44:11;;;;;;;14.20;10.65;;;;;;;26.85;72.23;98671.97;4406550;79;21029;-81
2021/07/17 16:50:13;;;;;;;13.55;9.53;;;;;;;26.87;72.62;98669.45;4394788;79;21832;-80
2021/07/17 16:56:16;;;;;;;14.65;9.53;;;;;;;26.81;73.10;98668.58;4387148;79;21657;-84
2021/07/17 17:02:17;;;;;;;18.80;10.43;;;;;;;26.64;72.56;98680.88;4434349;79;22232;-83
2021/07/17 17:08:19;;;;;;;17.52;12.37;;;;;;;25.95;73.78;98690.02;4398011;79;21049;-82
2021/07/17 17:14:20;;;;;;;16.48;11.88;;;;;;;25.43;75.91;98682.48;4427933;79;21058;-82
2021/07/17 17:20:21;;;;;;;17.15;12.78;;;;;;;24.87;77.49;98699.43;4406576;79;21498;-82
2021/07/17 17:26:23;;;;;;;16.73;10.18;;;;;;;24.78;78.70;98720.46;4402941;79;20987;-82
2021/07/17 17:32:24;;;;;;;9.05;7.95;;;;;;;24.53;79.94;98725.88;4398267;79;21913;-83
2021/07/17 17:38:25;;;;;;;9.70;7.75;;;;;;;24.05;79.93;98706.86;4397021;79;20993;-81
2021/07/17 17:44:30;;;;;;;16.15;6.92;;;;;;;23.78;80.30;98695.73;4411938;78;21485;-81
2021/07/17 17:50:33;;;;;;;12.55;7.92;;;;;;;23.62;80.64;98705.07;4421154;79;21417;-82
2021/07/17 17:56:35;;;;;;;9.57;6.73;;;;;;;23.49;80.91;98727.59;4306511;78;10000225;-82
2021/07/17 18:02:43;;;;;;;10.53;7.75;;;;;;;23.39;81.23;98747.02;4403370;79;21309;-82
2021/07/17 18:15:18;;;;;;;17.55;13.93;;;;;;;22.79;82.52;98715.31;4336137;79;21048;-80
2021/07/17 18:21:19;;;;;;;25.08;21.00;;;;;;;22.91;83.17;98754.89;4402892;78;21017;-84
2021/07/17 18:27:21;;;;;;;14.50;9.58;;;;;;;22.83;83.97;98775.95;4411308;79;21063;-82
2021/07/17 18:33:23;;;;;;;17.82;8.40;;;;;;;22.66;84.67;98777.47;4379541;79;21047;-83
2021/07/17 18:39:24;;;;;;;16.05;13.40;;;;;;;22.75;84.91;98755.95;4394686;79;21027;-84
2021/07/17 18:45:30;;;;;;;23.77;14.23;;;;;;;22.65;84.88;98768.31;4440855;79;21008;-84
2021/07/17 18:51:31;;;;;;;19.75;11.00;;;;;;;22.67;85.42;98776.22;4416783;79;21497;-84
2021/07/17 18:57:33;;;;;;;16.62;11.35;;;;;;;22.58;85.59;98749.06;4385596;79;21450;-83
2021/07/17 19:03:37;;;;;;;14.35;10.55;;;;;;;22.40;86.21;98781.06;4382791;79;21029;-83
2021/07/17 19:09:38;;;;;;;17.57;11.65;;;;;;;22.31;87.01;98799.16;4403646;79;21034;-83
2021/07/17 19:15:39;;;;;;;19.05;13.72;;;;;;;22.14;87.84;98771.96;4392211;79;21042;-85
2021/07/17 19:21:41;;;;;;;13.75;10.68;;;;;;;22.19;88.51;98779.09;4299130;81;21129;-83
2021/07/17 19:27:43;;;;;;;13.45;10.90;;;;;;;22.06;88.47;98831.39;4377158;79;21044;-83
2021/07/17 19:33:45;;;;;;;15.93;11.28;;;;;;;22.10;89.35;98832.66;4395366;79;21027;-82
2021/07/17 19:39:47;;;;;;;15.48;10.18;;;;;;;22.23;89.72;98830.55;4374698;79;21037;-82
2021/07/17 19:45:49;;;;;;;11.78;7.70;;;;;;;22.24;89.85;98820.33;4398644;79;21022;-82
2021/07/17 19:51:50;;;;;;;13.15;8.38;;;;;;;22.23;89.87;98811.81;4386304;79;21021;-81
2021/07/17 19:57:51;;;;;;;20.90;8.10;;;;;;;22.05;89.54;98824.88;4399191;78;21495;-82
2021/07/17 20:03:53;;;;;;;8.88;6.75;;;;;;;21.81;89.90;98821.00;4409532;79;21047;-81
2021/07/17 20:09:54;;;;;;;12.40;8.65;;;;;;;21.60;89.98;98794.05;4408484;79;21661;-81
2021/07/17 20:15:56;;;;;;;15.10;7.40;;;;;;;21.24;90.72;98804.89;4393349;79;21030;-82
2021/07/17 20:21:57;;;;;;;14.50;8.33;;;;;;;21.17;90.51;98790.45;4407655;79;22371;-81
2021/07/17 20:27:59;;;;;;;10.38;7.40;;;;;;;21.15;91.02;98774.80;4433558;79;21095;-82
2021/07/17 20:34:00;;;;;;;12.33;7.60;;;;;;;21.21;90.69;98787.70;4407241;79;20940;-84
2021/07/17 20:40:05;;;;;;;11.50;8.08;;;;;;;21.20;90.50;98783.38;4405326;79;21697;-81
2021/07/17 20:46:07;;;;;;;14.03;7.70;;;;;;;21.21;91.33;98789.09;4406089;79;21023;-82
2021/07/17 20:52:09;;;;;;;12.73;9.15;;;;;;;21.24;91.40;98800.72;4402490;79;21084;-82
2021/07/17 20:58:11;;;;;;;11.28;8.60;;;;;;;21.11;90.71;98795.04;4423065;79;20969;-82
2021/07/17 21:04:12;;;;;;;12.68;8.33;;;;;;;21.04;90.96;98793.27;4401712;79;21056;-84
2021/07/17 21:10:18;;;;;;;16.35;8.75;;;;;;;20.93;91.12;98783.08;4424094;79;21044;-80
2021/07/17 21:16:19;;;;;;;10.23;8.27;;;;;;;20.72;91.86;98789.34;4408458;79;20997;-82
2021/07/17 21:22:20;;;;;;;11.12;8.15;;;;;;;20.83;91.55;98791.80;4295681;81;21583;-84
2021/07/17 21:28:22;;;;;;;15.58;8.28;;;;;;;20.76;91.97;98785.06;4263075;81;21029;-81
2021/07/17 21:34:23;;;;;;;10.00;8.83;;;;;;;20.87;92.39;98782.70;4275376;81;21081;-82
2021/07/17 21:47:18;;;;;;;12.18;8.15;;;;;;;20.70;92.74;98795.20;4308592;81;21064;-81
2021/07/17 21:53:20;;;;;;;26.80;9.18;;;;;;;20.69;92.76;98797.83;4249225;82;21099;-82
2021/07/17 21:59:21;;;;;;;15.13;8.75;;;;;;;20.82;93.28;98797.96;4292187;81;21034;-82
2021/07/17 22:05:23;;;;;;;14.38;9.50;;;;;;;20.88;92.89;98795.38;4230786;81;21510;-82
2021/07/17 22:11:25;;;;;;;12.15;8.98;;;;;;;20.79;92.84;98805.81;4255828;81;21092;-82
2021/07/17 22:17:28;;;;;;;17.23;9.45;;;;;;;20.63;93.13;98802.37;4256922;82;21050;-82
2021/07/17 22:23:31;;;;;;;19.07;9.10;;;;;;;20.77;93.66;98801.91;4276368;81;21042;-82
2021/07/17 22:29:36;;;;;;;15.35;8.25;;;;;;;20.89;93.86;98797.71;4408618;79;21031;-82
2021/07/17 22:35:41;;;;;;;14.95;9.05;;;;;;;20.97;93.76;98801.84;4396223;79;21073;-83
2021/07/17 22:41:42;;;;;;;16.95;9.08;;;;;;;21.00;93.68;98799.55;4401374;79;21117;-82
2021/07/17 22:47:44;;;;;;;16.97;8.80;;;;;;;20.83;93.70;98791.16;4408760;79;21600;-82
2021/07/17 22:53:47;;;;;;;13.05;8.73;;;;;;;20.84;93.96;98799.69;4392295;79;21077;-82
2021/07/17 22:59:49;;;;;;;13.55;9.58;;;;;;;20.87;93.86;98791.05;4400400;79;21060;-82
2021/07/17 23:05:51;;;;;;;18.60;9.10;;;;;;;20.85;94.15;98780.97;4399697;79;21037;-82
2021/07/17 23:11:54;;;;;;;18.20;9.38;;;;;;;20.83;94.36;98780.03;4392828;79;21039;-82
2021/07/17 23:17:55;;;;;;;18.73;8.58;;;;;;;20.84;94.43;98763.52;4399586;79;20983;-82
2021/07/17 23:23:56;;;;;;;17.52;9.85;;;;;;;20.79;94.34;98756.34;4402530;79;21091;-82
2021/07/17 23:29:59;;;;;;;17.65;11.53;;;;;;;20.71;94.60;98773.10;4401367;79;21100;-83
2021/07/17 23:36:00;;;;;;;15.90;9.75;;;;;;;20.67;95.39;98782.19;4416243;79;21014;-84
2021/07/17 23:42:12;;;;;;;22.50;10.78;;;;;;;20.60;95.26;98771.28;4420505;79;21028;-83
2021/07/17 23:48:16;;;;;;;16.42;11.03;;;;;;;20.40;96.10;98747.91;4385099;79;21109;-83
2021/07/17 23:54:31;;;;;;;18.23;11.88;;;;;;;20.41;99.55;98782.02;4415706;79;22196;-85
